This is the latest recevied weather packets stored in our database for station/object DL1SEW-6. If no packets are shown the sender has not sent any weather packets the latest 1 day(s).
| Time | Temp. | Humidity | Pressure | Rain* | Wind** | Luminosity | Snow |
|---|---|---|---|---|---|---|---|
| 1778011807 | 11.11° C | 83% | 1008 hPa | 0 mm | 0 m/s | 0 W/m² | - |
| 1778010905 | 11.67° C | 83% | 1007.8 hPa | 0 mm | 0 m/s | 0 W/m² | - |
| 1778010005 | 11.67° C | 83% | 1007.6 hPa | 0 mm | 0 m/s | 0 W/m² | - |
| 1778009105 | 11.67° C | 83% | 1007.6 hPa | 0 mm | 0.45 m/s, 155° | 0 W/m² | - |
| 1778008205 | 11.67° C | 83% | 1007.5 hPa | 0 mm | 0.45 m/s, 169° | 0 W/m² | - |
| 1778007306 | 11.67° C | 84% | 1007.2 hPa | 0.25 mm | 0 m/s | 0 W/m² | - |
| 1778006405 | 11.67° C | 84% | 1007 hPa | 0.25 mm | 0 m/s | 2 W/m² | - |
| 1778005505 | 12.22° C | 84% | 1006.9 hPa | 0.25 mm | 0 m/s | 9 W/m² | - |
| 1778004604 | 12.22° C | 85% | 1006.7 hPa | 0.25 mm | 0 m/s | 11 W/m² | - |
| 1778003704 | 12.22° C | 85% | 1007 hPa | 0 mm | 0 m/s | 14 W/m² | - |
| 1778002804 | 12.22° C | 84% | 1006.9 hPa | 0.25 mm | 0 m/s | 14 W/m² | - |
| 1778001909 | 12.78° C | 83% | 1007.1 hPa | 1.52 mm | 0.89 m/s, 155° | 18 W/m² | - |
| 1778001009 | 13.33° C | 82% | 1007 hPa | 1.52 mm | 0.45 m/s, 155° | 20 W/m² | - |
| 1778000108 | 13.89° C | 78% | 1006.9 hPa | 1.52 mm | 0 m/s | 32 W/m² | - |
| 1777999208 | 15° C | 72% | 1007 hPa | 1.52 mm | 0.89 m/s, 164° | 17 W/m² | - |
| 1777998308 | 16.67° C | 70% | 1006.7 hPa | 0 mm | 0 m/s | 11 W/m² | - |
| 1777997408 | 17.22° C | 69% | 1006.6 hPa | 0 mm | 0 m/s | 149 W/m² | - |
| 1777996508 | 17.22° C | 70% | 1006.5 hPa | 0 mm | 0 m/s | 270 W/m² | - |
| 1777995609 | 17.22° C | 68% | 1006.7 hPa | 0 mm | 0 m/s | 476 W/m² | - |
| 1777994708 | 16.67° C | 73% | 1006.7 hPa | 0 mm | 0 m/s | 636 W/m² | - |
| 1777993808 | 15.56° C | 76% | 1006.7 hPa | 0 mm | 0 m/s | 505 W/m² | - |
| 1777992907 | 15.56° C | 78% | 1006.8 hPa | 0 mm | 0 m/s | 398 W/m² | - |
| 1777992007 | 15° C | 80% | 1006.6 hPa | 0 mm | 0 m/s | 282 W/m² | - |
| 1777991107 | 15° C | 77% | 1006.8 hPa | 0 mm | 0 m/s | 286 W/m² | - |
| 1777990207 | 14.44° C | 77% | 1006.8 hPa | 0.25 mm | 0 m/s | 277 W/m² | - |
* Rain latest hour (hover to see other rain measurements)
** Current wind speed in m/s (hover to see current wind gust speed)